createdAt,value
2022-09-28T00:00:51.124Z,98791.72
2022-09-28T00:05:02.836Z,98793.09
2022-09-28T00:09:05.088Z,98787.97
2022-09-28T00:13:08.105Z,98781.31
2022-09-28T00:17:09.756Z,98777.84
2022-09-28T00:21:14.221Z,98769.56
2022-09-28T00:25:16.955Z,98777.31
2022-09-28T00:29:29.112Z,98787.28
2022-09-28T00:33:31.065Z,98785.47
2022-09-28T00:37:33.897Z,98776.34
2022-09-28T00:41:36.123Z,98772.03
2022-09-28T00:45:38.155Z,98770.94
2022-09-28T00:50:02.812Z,98783.66
2022-09-28T00:54:07.689Z,98771.34
2022-09-28T00:58:13.085Z,98779.94
2022-09-28T01:02:15.372Z,98778.16
2022-09-28T01:06:28.143Z,98772.16
2022-09-28T01:10:31.512Z,98776.59
2022-09-28T01:14:33.806Z,98771.75
2022-09-28T01:18:47.517Z,98772.56
2022-09-28T01:23:13.111Z,98765.78
2022-09-28T01:27:32.509Z,98770.88
2022-09-28T01:31:37.178Z,98766.59
2022-09-28T01:35:51.846Z,98766.75
2022-09-28T01:39:57.403Z,98773.78
2022-09-28T01:44:02.967Z,98784.44
2022-09-28T01:48:07.903Z,98777.66
2022-09-28T01:52:14.734Z,98777.22
2022-09-28T01:56:36.215Z,98775.84
2022-09-28T02:00:42.502Z,98772.50
2022-09-28T02:04:55.498Z,98775.56
2022-09-28T02:09:05.412Z,98772.53
2022-09-28T02:13:32.855Z,98768.50
2022-09-28T02:17:35.276Z,98775.56
2022-09-28T02:21:55.480Z,98780.41
2022-09-28T02:26:08.707Z,98778.31
2022-09-28T02:30:11.591Z,98773.47
2022-09-28T02:34:13.460Z,98778.31
2022-09-28T02:38:15.568Z,98780.00
2022-09-28T02:42:43.392Z,98772.78
2022-09-28T02:47:11.159Z,98770.56
2022-09-28T02:51:27.538Z,98770.28
2022-09-28T02:55:35.318Z,98768.94
2022-09-28T03:00:08.948Z,98764.09
2022-09-28T03:04:29.068Z,98767.50
2022-09-28T03:08:38.485Z,98766.41
2022-09-28T03:12:46.437Z,98774.13
2022-09-28T03:16:50.358Z,98770.00
2022-09-28T03:20:52.406Z,98777.47
2022-09-28T03:24:54.187Z,98779.38
2022-09-28T03:28:56.099Z,98776.09
2022-09-28T03:33:00.477Z,98785.75
2022-09-28T03:37:04.426Z,98778.03
2022-09-28T03:41:07.583Z,98770.84
2022-09-28T03:45:11.635Z,98772.25
2022-09-28T03:49:13.757Z,98763.53
2022-09-28T03:53:15.696Z,98766.44
2022-09-28T03:57:17.665Z,98756.47
2022-09-28T04:01:20.258Z,98760.31
2022-09-28T04:05:22.766Z,98757.44
2022-09-28T04:09:24.456Z,98762.81
2022-09-28T04:13:27.362Z,98764.50
2022-09-28T04:17:29.261Z,98763.78
2022-09-28T04:21:31.441Z,98765.44
2022-09-28T04:25:39.668Z,98773.88
2022-09-28T04:29:41.740Z,98775.94
2022-09-28T04:33:43.778Z,98786.81
2022-09-28T04:37:45.799Z,98770.97
2022-09-28T04:41:48.780Z,98766.50
2022-09-28T04:45:51.271Z,98768.59
2022-09-28T04:49:53.227Z,98766.97
2022-09-28T04:54:01.261Z,98761.78
2022-09-28T04:58:04.378Z,98763.63
2022-09-28T05:02:07.151Z,98765.69
2022-09-28T05:06:30.496Z,98761.97
2022-09-28T05:10:40.493Z,98759.63
2022-09-28T05:14:42.367Z,98763.75
2022-09-28T05:18:44.444Z,98768.03
2022-09-28T05:22:46.132Z,98772.28
2022-09-28T05:26:48.084Z,98774.50
2022-09-28T05:30:50.054Z,98775.25
2022-09-28T05:35:06.308Z,98771.81
2022-09-28T05:39:15.796Z,98776.34
2022-09-28T05:43:18.063Z,98777.13
2022-09-28T05:47:19.723Z,98783.13
2022-09-28T05:51:21.644Z,98791.25
2022-09-28T05:55:23.495Z,98797.19
2022-09-28T05:59:25.381Z,98793.06
2022-09-28T06:03:27.450Z,98800.09
2022-09-28T06:07:29.468Z,98803.09
2022-09-28T06:11:31.944Z,98800.09
2022-09-28T06:15:39.090Z,98803.19
2022-09-28T06:19:40.858Z,98802.28
2022-09-28T06:23:57.860Z,98794.16
2022-09-28T06:28:07.616Z,98794.28
2022-09-28T06:32:09.618Z,98804.50
2022-09-28T06:36:13.368Z,98798.88
2022-09-28T06:40:15.711Z,98785.75
2022-09-28T06:44:17.732Z,98791.56
2022-09-28T06:48:58.614Z,98796.72
2022-09-28T06:53:19.208Z,98788.94
2022-09-28T06:57:27.120Z,98785.06
2022-09-28T07:01:28.889Z,98791.38
2022-09-28T07:05:48.604Z,98800.13
2022-09-28T07:10:13.194Z,98806.13
2022-09-28T07:14:46.860Z,98807.59
2022-09-28T07:18:50.134Z,98787.63
2022-09-28T07:22:59.274Z,98768.53
2022-09-28T07:27:12.484Z,98767.59
2022-09-28T07:31:29.739Z,98773.28
2022-09-28T07:35:52.231Z,98782.00
2022-09-28T07:40:14.108Z,98780.50
2022-09-28T07:44:17.491Z,98770.66
2022-09-28T07:48:21.573Z,98755.88
2022-09-28T07:52:34.683Z,98768.03
2022-09-28T07:56:50.022Z,98769.00
2022-09-28T08:01:07.313Z,98765.41
2022-09-28T08:05:10.080Z,98774.66
2022-09-28T08:09:11.863Z,98769.41
2022-09-28T08:13:34.070Z,98765.94
2022-09-28T08:17:50.655Z,98772.97
2022-09-28T08:21:55.277Z,98770.63
2022-09-28T08:25:57.118Z,98775.50
2022-09-28T08:29:59.028Z,98775.22
2022-09-28T08:34:29.677Z,98776.28
2022-09-28T08:38:43.443Z,98779.34
2022-09-28T08:44:00.889Z,98774.81
2022-09-28T08:48:52.216Z,98788.34
2022-09-28T08:53:47.943Z,98781.56
2022-09-28T08:58:05.609Z,98777.66
2022-09-28T09:02:33.556Z,98789.34
2022-09-28T09:07:04.968Z,98808.44
2022-09-28T09:11:43.152Z,98846.53
2022-09-28T09:15:55.784Z,98838.28
2022-09-28T09:20:28.011Z,98844.19
2022-09-28T09:24:51.895Z,98804.84
2022-09-28T09:29:14.131Z,98865.00
2022-09-28T09:33:38.471Z,98884.19
2022-09-28T09:38:28.663Z,98899.47
2022-09-28T09:43:27.935Z,98886.00
2022-09-28T09:48:11.137Z,98886.66
2022-09-28T09:52:26.963Z,98878.16
2022-09-28T09:56:45.166Z,98902.66
2022-09-28T10:01:19.763Z,98926.38
2022-09-28T10:05:54.551Z,98927.78
2022-09-28T10:10:00.009Z,98948.75
2022-09-28T10:14:25.337Z,98948.34
2022-09-28T10:18:35.471Z,98943.06
2022-09-28T10:22:58.346Z,98939.63
2022-09-28T10:27:06.515Z,98950.34
2022-09-28T10:31:37.791Z,98952.16
2022-09-28T10:35:43.446Z,98951.75
2022-09-28T10:39:53.825Z,98954.34
2022-09-28T10:44:08.816Z,98957.31
2022-09-28T10:48:45.918Z,98956.03
2022-09-28T10:52:47.686Z,98945.94
2022-09-28T10:57:36.852Z,98947.06
2022-09-28T11:01:43.804Z,98947.59
2022-09-28T11:06:14.009Z,98949.13
2022-09-28T11:10:25.096Z,98947.06
2022-09-28T11:14:42.121Z,98942.09
2022-09-28T11:18:49.850Z,98947.31
2022-09-28T11:22:53.704Z,98944.44
2022-09-28T11:27:00.206Z,98940.97
2022-09-28T11:31:08.006Z,98948.69
2022-09-28T11:35:50.579Z,98938.03
2022-09-28T11:40:26.280Z,98938.91
2022-09-28T11:44:41.470Z,98947.19
2022-09-28T11:48:55.068Z,98951.00
2022-09-28T11:53:35.501Z,98950.84
2022-09-28T11:57:42.178Z,98949.88
2022-09-28T12:01:48.956Z,98958.56
2022-09-28T12:06:16.197Z,98963.06
2022-09-28T12:10:29.298Z,98966.41
2022-09-28T12:14:35.783Z,98973.19
2022-09-28T12:18:46.666Z,98964.81
2022-09-28T12:23:01.898Z,98962.41
2022-09-28T12:27:06.080Z,98963.44
2022-09-28T12:31:15.198Z,98968.88
2022-09-28T12:35:23.035Z,98978.38
2022-09-28T12:39:57.471Z,98978.22
2022-09-28T12:44:27.639Z,98982.91
2022-09-28T12:48:29.656Z,98976.66
2022-09-28T12:52:45.252Z,98982.25
2022-09-28T12:56:58.087Z,98976.72
2022-09-28T13:01:28.499Z,98977.06
2022-09-28T13:05:34.474Z,98971.28
2022-09-28T13:10:01.731Z,98967.44
2022-09-28T13:14:32.880Z,98962.97
2022-09-28T13:18:53.287Z,98946.91
2022-09-28T13:23:08.208Z,98948.22
2022-09-28T13:27:15.459Z,98951.38
2022-09-28T13:31:33.171Z,98953.63
2022-09-28T13:35:43.900Z,98956.13
2022-09-28T13:39:45.712Z,98961.97
2022-09-28T13:43:50.388Z,98957.06
2022-09-28T13:48:02.993Z,98949.84
2022-09-28T13:52:34.555Z,98948.59
2022-09-28T13:56:57.910Z,98947.91
2022-09-28T14:01:11.466Z,98947.09
2022-09-28T14:05:23.017Z,98950.13
2022-09-28T14:09:45.529Z,98950.19
2022-09-28T14:14:05.617Z,98950.63
2022-09-28T14:18:25.817Z,98941.72
2022-09-28T14:22:55.736Z,98954.19
2022-09-28T14:27:15.994Z,98945.56
2022-09-28T14:31:30.012Z,98951.31
2022-09-28T14:35:43.302Z,98953.34
2022-09-28T14:40:05.524Z,98949.94
2022-09-28T14:44:13.084Z,98938.16
2022-09-28T14:48:20.488Z,98937.88
2022-09-28T14:52:39.232Z,98939.63
2022-09-28T14:56:51.907Z,98948.69
2022-09-28T15:01:07.472Z,98944.63
2022-09-28T15:05:19.762Z,98935.97
2022-09-28T15:09:28.561Z,98938.91
2022-09-28T15:13:30.582Z,98923.59
2022-09-28T15:17:39.408Z,98942.34
2022-09-28T15:21:43.393Z,98912.50
2022-09-28T15:25:52.502Z,98900.56
2022-09-28T15:29:58.358Z,98881.00
2022-09-28T15:34:18.938Z,98862.91
2022-09-28T15:38:21.157Z,98840.38
2022-09-28T15:42:23.201Z,98826.16
2022-09-28T15:46:28.648Z,98832.59
2022-09-28T15:50:31.732Z,98826.69
2022-09-28T15:54:44.354Z,98824.22
2022-09-28T15:59:08.729Z,98813.47
2022-09-28T16:03:10.621Z,98813.88
2022-09-28T16:07:12.223Z,98808.34
2022-09-28T16:11:26.455Z,98818.09
2022-09-28T16:15:36.869Z,98820.88
2022-09-28T16:19:39.633Z,98810.75
2022-09-28T16:23:41.878Z,98812.16
2022-09-28T16:27:44.942Z,98799.84
2022-09-28T16:31:52.608Z,98797.38
2022-09-28T16:35:54.683Z,98795.84
2022-09-28T16:39:56.254Z,98793.50
2022-09-28T16:44:01.016Z,98779.66
2022-09-28T16:48:04.143Z,98780.19
2022-09-28T16:52:12.352Z,98778.25
2022-09-28T16:56:14.158Z,98782.00
2022-09-28T17:00:22.901Z,98785.88
2022-09-28T17:04:25.968Z,98809.94
2022-09-28T17:08:28.038Z,98801.66
2022-09-28T17:12:29.744Z,98779.94
2022-09-28T17:17:02.302Z,98790.31
2022-09-28T17:20:56.721Z,98793.75
2022-09-28T17:24:58.759Z,98786.28
2022-09-28T17:29:01.619Z,98767.88
2022-09-28T17:33:03.669Z,98780.78
2022-09-28T17:37:05.441Z,98768.16
2022-09-28T17:41:10.775Z,98778.41
2022-09-28T17:45:12.610Z,98770.66
2022-09-28T17:49:15.168Z,98767.88
2022-09-28T17:53:16.988Z,98771.06
2022-09-28T17:57:18.946Z,98777.00
2022-09-28T18:01:20.715Z,98777.44
2022-09-28T18:05:24.874Z,98791.84
2022-09-28T18:09:26.662Z,98812.16
2022-09-28T18:13:28.785Z,98821.03
2022-09-28T18:17:30.558Z,98855.31
2022-09-28T18:21:32.923Z,98876.06
2022-09-28T18:25:34.813Z,98881.16
2022-09-28T18:29:36.912Z,98898.84
2022-09-28T18:33:39.305Z,98921.22
2022-09-28T18:37:41.611Z,98934.75
2022-09-28T18:41:43.311Z,98945.06
2022-09-28T18:45:45.455Z,98959.72
2022-09-28T18:49:47.149Z,98961.09
2022-09-28T18:53:49.117Z,98971.47
2022-09-28T18:57:51.432Z,98975.31
2022-09-28T19:01:53.529Z,98980.31
2022-09-28T19:05:56.255Z,98986.09
2022-09-28T19:09:58.111Z,98991.31
2022-09-28T19:13:59.786Z,98991.63
2022-09-28T19:18:01.979Z,98991.44
2022-09-28T19:22:04.436Z,98991.44
2022-09-28T19:26:13.659Z,98978.56
2022-09-28T19:30:15.386Z,98978.75
2022-09-28T19:34:17.579Z,98977.13
2022-09-28T19:38:19.537Z,98974.56
2022-09-28T19:42:21.545Z,98970.44
2022-09-28T19:46:23.175Z,98970.81
2022-09-28T19:50:25.207Z,98970.69
2022-09-28T19:54:33.095Z,98956.09
2022-09-28T19:58:37.569Z,98940.84
2022-09-28T20:02:39.216Z,98932.97
2022-09-28T20:06:41.471Z,98924.06
2022-09-28T20:10:54.656Z,98920.81
2022-09-28T20:14:56.852Z,98935.72
2022-09-28T20:19:03.024Z,98933.56
2022-09-28T20:23:05.344Z,98931.31
2022-09-28T20:27:07.133Z,98931.53
2022-09-28T20:31:23.664Z,98939.59
2022-09-28T20:35:50.772Z,98941.50
2022-09-28T20:39:53.346Z,98941.56
2022-09-28T20:43:59.584Z,98934.09
2022-09-28T20:48:06.390Z,98933.59
2022-09-28T20:52:08.601Z,98919.09
2022-09-28T20:56:31.594Z,98915.56
2022-09-28T21:00:33.322Z,98908.66
2022-09-28T21:04:35.736Z,98912.28
2022-09-28T21:08:37.340Z,98913.22
2022-09-28T21:12:39.878Z,98911.09
2022-09-28T21:16:41.706Z,98910.88
2022-09-28T21:20:47.923Z,98924.28
2022-09-28T21:24:49.504Z,98928.50
2022-09-28T21:28:56.132Z,98922.53
2022-09-28T21:32:58.122Z,98918.09
2022-09-28T21:36:59.932Z,98932.34
2022-09-28T21:41:01.699Z,98933.38
2022-09-28T21:45:04.243Z,98925.41
2022-09-28T21:49:07.984Z,98937.19
2022-09-28T21:53:10.003Z,98946.06
2022-09-28T21:57:12.002Z,98948.19
2022-09-28T22:01:23.472Z,98953.13
2022-09-28T22:05:25.184Z,98948.22
2022-09-28T22:09:27.243Z,98953.47
2022-09-28T22:13:29.695Z,98957.63
2022-09-28T22:17:32.089Z,98951.47
2022-09-28T22:21:34.907Z,98957.03
2022-09-28T22:25:42.974Z,98964.69
2022-09-28T22:29:45.018Z,98969.56
2022-09-28T22:33:47.052Z,98970.63
2022-09-28T22:37:48.950Z,98967.50
2022-09-28T22:41:52.637Z,98961.84
2022-09-28T22:46:12.102Z,98973.94
2022-09-28T22:50:14.137Z,98993.75
2022-09-28T22:54:16.370Z,99002.56
2022-09-28T22:58:18.408Z,99007.53
2022-09-28T23:02:19.967Z,99003.34
2022-09-28T23:06:24.909Z,99004.97
2022-09-28T23:10:26.670Z,99010.09
2022-09-28T23:14:28.485Z,99014.16
2022-09-28T23:18:32.747Z,99022.63
2022-09-28T23:22:34.693Z,99024.28
2022-09-28T23:26:36.972Z,99029.06
2022-09-28T23:30:39.072Z,99031.94
2022-09-28T23:34:40.720Z,99017.16
2022-09-28T23:38:43.151Z,99029.31
2022-09-28T23:42:44.889Z,99023.72
2022-09-28T23:46:46.768Z,99041.47
2022-09-28T23:50:48.504Z,99035.22
2022-09-28T23:54:50.580Z,99051.19
2022-09-28T23:58:52.180Z,99059.28
